sensor_id;sensor_type;location;lat;lon;timestamp;P1;durP1;ratioP1;P2;durP2;ratioP2
16450;SDS011;12243;42.708;23.310;2023-11-21T00:01:13;27.37;;;16.23;;
16450;SDS011;12243;42.708;23.310;2023-11-21T00:03:40;27.80;;;17.33;;
16450;SDS011;12243;42.708;23.310;2023-11-21T00:06:07;30.03;;;16.77;;
16450;SDS011;12243;42.708;23.310;2023-11-21T00:08:34;29.17;;;16.50;;
16450;SDS011;12243;42.708;23.310;2023-11-21T00:11:01;32.40;;;17.57;;
16450;SDS011;12243;42.708;23.310;2023-11-21T00:13:30;30.87;;;17.57;;
16450;SDS011;12243;42.708;23.310;2023-11-21T00:15:57;33.57;;;17.40;;
16450;SDS011;12243;42.708;23.310;2023-11-21T00:18:26;30.43;;;18.17;;
16450;SDS011;12243;42.708;23.310;2023-11-21T00:20:53;33.27;;;17.93;;
16450;SDS011;12243;42.708;23.310;2023-11-21T00:23:20;33.40;;;18.37;;
16450;SDS011;12243;42.708;23.310;2023-11-21T00:25:47;34.17;;;18.90;;
16450;SDS011;12243;42.708;23.310;2023-11-21T00:28:13;34.50;;;19.13;;
16450;SDS011;12243;42.708;23.310;2023-11-21T00:30:40;36.27;;;19.57;;
16450;SDS011;12243;42.708;23.310;2023-11-21T00:33:07;32.20;;;18.73;;
16450;SDS011;12243;42.708;23.310;2023-11-21T00:35:35;33.30;;;18.27;;
16450;SDS011;12243;42.708;23.310;2023-11-21T00:38:02;30.03;;;18.07;;
16450;SDS011;12243;42.708;23.310;2023-11-21T00:40:29;34.83;;;18.87;;
16450;SDS011;12243;42.708;23.310;2023-11-21T00:42:56;37.27;;;19.87;;
16450;SDS011;12243;42.708;23.310;2023-11-21T00:45:23;29.70;;;16.90;;
16450;SDS011;12243;42.708;23.310;2023-11-21T00:47:51;26.57;;;15.67;;
16450;SDS011;12243;42.708;23.310;2023-11-21T00:50:17;24.33;;;14.80;;
16450;SDS011;12243;42.708;23.310;2023-11-21T00:52:46;25.23;;;14.57;;
16450;SDS011;12243;42.708;23.310;2023-11-21T00:55:13;21.97;;;14.20;;
16450;SDS011;12243;42.708;23.310;2023-11-21T00:57:50;28.77;;;15.75;;
16450;SDS011;12243;42.708;23.310;2023-11-21T01:00:22;27.93;;;14.28;;
16450;SDS011;12243;42.708;23.310;2023-11-21T01:02:49;25.47;;;14.43;;
16450;SDS011;12243;42.708;23.310;2023-11-21T01:05:15;26.43;;;13.33;;
16450;SDS011;12243;42.708;23.310;2023-11-21T01:07:42;23.07;;;13.03;;
16450;SDS011;12243;42.708;23.310;2023-11-21T01:10:11;25.80;;;13.50;;
16450;SDS011;12243;42.708;23.310;2023-11-21T01:12:38;23.47;;;14.53;;
16450;SDS011;12243;42.708;23.310;2023-11-21T01:15:05;25.67;;;14.80;;
16450;SDS011;12243;42.708;23.310;2023-11-21T01:17:33;19.73;;;13.07;;
16450;SDS011;12243;42.708;23.310;2023-11-21T01:20:00;25.27;;;13.50;;
16450;SDS011;12243;42.708;23.310;2023-11-21T01:22:28;26.97;;;13.50;;
16450;SDS011;12243;42.708;23.310;2023-11-21T01:24:55;22.07;;;14.17;;
16450;SDS011;12243;42.708;23.310;2023-11-21T01:27:24;21.83;;;13.43;;
16450;SDS011;12243;42.708;23.310;2023-11-21T01:29:51;22.70;;;13.33;;
16450;SDS011;12243;42.708;23.310;2023-11-21T01:32:18;22.67;;;12.90;;
16450;SDS011;12243;42.708;23.310;2023-11-21T01:34:45;24.93;;;13.67;;
16450;SDS011;12243;42.708;23.310;2023-11-21T01:37:12;28.60;;;18.47;;
16450;SDS011;12243;42.708;23.310;2023-11-21T01:39:39;29.03;;;17.33;;
16450;SDS011;12243;42.708;23.310;2023-11-21T01:42:06;24.47;;;14.27;;
16450;SDS011;12243;42.708;23.310;2023-11-21T01:44:34;24.40;;;13.60;;
16450;SDS011;12243;42.708;23.310;2023-11-21T01:47:02;28.43;;;14.33;;
16450;SDS011;12243;42.708;23.310;2023-11-21T01:49:30;30.87;;;16.37;;
16450;SDS011;12243;42.708;23.310;2023-11-21T01:51:58;27.93;;;16.00;;
16450;SDS011;12243;42.708;23.310;2023-11-21T01:54:26;29.23;;;15.87;;
16450;SDS011;12243;42.708;23.310;2023-11-21T01:56:56;34.53;;;17.43;;
16450;SDS011;12243;42.708;23.310;2023-11-21T01:59:29;31.47;;;18.00;;
16450;SDS011;12243;42.708;23.310;2023-11-21T02:02:03;35.23;;;19.87;;
16450;SDS011;12243;42.708;23.310;2023-11-21T02:04:31;35.00;;;18.83;;
16450;SDS011;12243;42.708;23.310;2023-11-21T02:06:59;28.27;;;17.93;;
16450;SDS011;12243;42.708;23.310;2023-11-21T02:09:26;34.30;;;18.33;;
16450;SDS011;12243;42.708;23.310;2023-11-21T02:11:52;38.30;;;18.47;;
16450;SDS011;12243;42.708;23.310;2023-11-21T02:14:20;33.37;;;18.27;;
16450;SDS011;12243;42.708;23.310;2023-11-21T02:16:47;35.13;;;18.83;;
16450;SDS011;12243;42.708;23.310;2023-11-21T02:19:18;43.63;;;19.93;;
16450;SDS011;12243;42.708;23.310;2023-11-21T02:21:49;41.90;;;19.73;;
16450;SDS011;12243;42.708;23.310;2023-11-21T02:24:19;37.57;;;20.57;;
16450;SDS011;12243;42.708;23.310;2023-11-21T02:26:46;32.97;;;19.20;;
16450;SDS011;12243;42.708;23.310;2023-11-21T02:29:13;41.67;;;20.10;;
16450;SDS011;12243;42.708;23.310;2023-11-21T02:31:45;40.03;;;20.37;;
16450;SDS011;12243;42.708;23.310;2023-11-21T02:34:15;35.77;;;19.23;;
16450;SDS011;12243;42.708;23.310;2023-11-21T02:36:42;34.57;;;17.77;;
16450;SDS011;12243;42.708;23.310;2023-11-21T02:39:11;24.33;;;15.07;;
16450;SDS011;12243;42.708;23.310;2023-11-21T02:41:42;25.77;;;15.47;;
16450;SDS011;12243;42.708;23.310;2023-11-21T02:44:11;30.40;;;16.03;;
16450;SDS011;12243;42.708;23.310;2023-11-21T02:46:38;28.37;;;15.47;;
16450;SDS011;12243;42.708;23.310;2023-11-21T02:49:05;28.23;;;15.53;;
16450;SDS011;12243;42.708;23.310;2023-11-21T02:51:32;31.37;;;16.40;;
16450;SDS011;12243;42.708;23.310;2023-11-21T02:53:59;32.87;;;15.77;;
16450;SDS011;12243;42.708;23.310;2023-11-21T02:56:28;30.90;;;14.50;;
16450;SDS011;12243;42.708;23.310;2023-11-21T02:58:57;23.03;;;13.43;;
16450;SDS011;12243;42.708;23.310;2023-11-21T03:01:25;21.33;;;12.63;;
16450;SDS011;12243;42.708;23.310;2023-11-21T03:03:52;22.87;;;14.87;;
16450;SDS011;12243;42.708;23.310;2023-11-21T03:06:20;24.97;;;13.20;;
16450;SDS011;12243;42.708;23.310;2023-11-21T03:08:48;19.60;;;12.50;;
16450;SDS011;12243;42.708;23.310;2023-11-21T03:11:16;23.90;;;13.10;;
16450;SDS011;12243;42.708;23.310;2023-11-21T03:13:44;22.20;;;13.67;;
16450;SDS011;12243;42.708;23.310;2023-11-21T03:16:14;23.07;;;13.83;;
16450;SDS011;12243;42.708;23.310;2023-11-21T03:18:42;23.47;;;14.90;;
16450;SDS011;12243;42.708;23.310;2023-11-21T03:21:09;26.43;;;15.03;;
16450;SDS011;12243;42.708;23.310;2023-11-21T03:23:36;30.47;;;15.53;;
16450;SDS011;12243;42.708;23.310;2023-11-21T03:26:03;26.30;;;15.53;;
16450;SDS011;12243;42.708;23.310;2023-11-21T03:28:31;23.97;;;14.83;;
16450;SDS011;12243;42.708;23.310;2023-11-21T03:30:57;27.70;;;14.63;;
16450;SDS011;12243;42.708;23.310;2023-11-21T03:33:26;24.07;;;15.00;;
16450;SDS011;12243;42.708;23.310;2023-11-21T03:35:52;25.80;;;13.47;;
16450;SDS011;12243;42.708;23.310;2023-11-21T03:38:19;23.50;;;13.50;;
16450;SDS011;12243;42.708;23.310;2023-11-21T03:40:46;26.60;;;13.87;;
16450;SDS011;12243;42.708;23.310;2023-11-21T03:43:13;26.00;;;14.43;;
16450;SDS011;12243;42.708;23.310;2023-11-21T03:45:40;23.03;;;14.73;;
16450;SDS011;12243;42.708;23.310;2023-11-21T03:48:07;25.87;;;14.63;;
16450;SDS011;12243;42.708;23.310;2023-11-21T03:50:38;27.03;;;15.27;;
16450;SDS011;12243;42.708;23.310;2023-11-21T03:53:05;27.73;;;15.73;;
16450;SDS011;12243;42.708;23.310;2023-11-21T03:55:32;29.27;;;16.37;;
16450;SDS011;12243;42.708;23.310;2023-11-21T03:57:59;23.93;;;15.07;;
16450;SDS011;12243;42.708;23.310;2023-11-21T04:00:26;25.10;;;14.40;;
16450;SDS011;12243;42.708;23.310;2023-11-21T04:02:54;25.67;;;13.33;;
16450;SDS011;12243;42.708;23.310;2023-11-21T04:05:21;20.13;;;12.40;;
16450;SDS011;12243;42.708;23.310;2023-11-21T04:07:50;24.13;;;13.43;;
16450;SDS011;12243;42.708;23.310;2023-11-21T04:10:17;23.60;;;12.97;;
16450;SDS011;12243;42.708;23.310;2023-11-21T04:12:44;19.90;;;11.67;;
16450;SDS011;12243;42.708;23.310;2023-11-21T04:15:11;18.97;;;11.00;;
16450;SDS011;12243;42.708;23.310;2023-11-21T04:17:39;20.80;;;11.70;;
16450;SDS011;12243;42.708;23.310;2023-11-21T04:20:07;20.43;;;11.13;;
16450;SDS011;12243;42.708;23.310;2023-11-21T04:22:36;21.03;;;11.80;;
16450;SDS011;12243;42.708;23.310;2023-11-21T04:25:07;23.63;;;13.13;;
16450;SDS011;12243;42.708;23.310;2023-11-21T04:27:35;21.87;;;12.40;;
16450;SDS011;12243;42.708;23.310;2023-11-21T04:30:03;23.40;;;13.80;;
16450;SDS011;12243;42.708;23.310;2023-11-21T04:32:30;24.37;;;14.50;;
16450;SDS011;12243;42.708;23.310;2023-11-21T04:34:57;23.07;;;13.97;;
16450;SDS011;12243;42.708;23.310;2023-11-21T04:37:24;27.07;;;13.93;;
16450;SDS011;12243;42.708;23.310;2023-11-21T04:39:51;25.03;;;14.63;;
16450;SDS011;12243;42.708;23.310;2023-11-21T04:42:19;24.57;;;13.30;;
16450;SDS011;12243;42.708;23.310;2023-11-21T04:44:46;24.70;;;13.90;;
16450;SDS011;12243;42.708;23.310;2023-11-21T04:47:13;21.03;;;13.70;;
16450;SDS011;12243;42.708;23.310;2023-11-21T04:49:41;21.77;;;13.67;;
16450;SDS011;12243;42.708;23.310;2023-11-21T04:52:09;21.63;;;13.63;;
16450;SDS011;12243;42.708;23.310;2023-11-21T04:54:36;28.13;;;14.17;;
16450;SDS011;12243;42.708;23.310;2023-11-21T04:57:03;23.63;;;13.77;;
16450;SDS011;12243;42.708;23.310;2023-11-21T04:59:33;24.83;;;13.50;;
16450;SDS011;12243;42.708;23.310;2023-11-21T05:02:00;23.13;;;13.07;;
16450;SDS011;12243;42.708;23.310;2023-11-21T05:04:27;24.50;;;13.83;;
16450;SDS011;12243;42.708;23.310;2023-11-21T05:06:54;23.33;;;14.33;;
16450;SDS011;12243;42.708;23.310;2023-11-21T05:09:21;24.60;;;15.13;;
16450;SDS011;12243;42.708;23.310;2023-11-21T05:11:48;23.60;;;15.07;;
16450;SDS011;12243;42.708;23.310;2023-11-21T05:14:15;27.20;;;14.70;;
16450;SDS011;12243;42.708;23.310;2023-11-21T05:16:45;25.50;;;14.63;;
16450;SDS011;12243;42.708;23.310;2023-11-21T05:19:12;26.47;;;14.60;;
16450;SDS011;12243;42.708;23.310;2023-11-21T05:21:39;25.20;;;14.73;;
16450;SDS011;12243;42.708;23.310;2023-11-21T05:24:06;25.70;;;14.10;;
16450;SDS011;12243;42.708;23.310;2023-11-21T05:26:33;30.23;;;15.57;;
16450;SDS011;12243;42.708;23.310;2023-11-21T05:29:00;27.53;;;15.57;;
16450;SDS011;12243;42.708;23.310;2023-11-21T05:31:27;27.23;;;15.50;;
16450;SDS011;12243;42.708;23.310;2023-11-21T05:33:56;29.20;;;15.77;;
16450;SDS011;12243;42.708;23.310;2023-11-21T05:36:22;30.33;;;17.03;;
16450;SDS011;12243;42.708;23.310;2023-11-21T05:38:49;33.47;;;15.53;;
16450;SDS011;12243;42.708;23.310;2023-11-21T05:41:16;28.63;;;16.07;;
16450;SDS011;12243;42.708;23.310;2023-11-21T05:43:43;32.30;;;18.43;;
16450;SDS011;12243;42.708;23.310;2023-11-21T05:46:10;30.13;;;17.50;;
16450;SDS011;12243;42.708;23.310;2023-11-21T05:48:38;33.27;;;16.07;;
16450;SDS011;12243;42.708;23.310;2023-11-21T05:51:07;26.27;;;15.63;;
16450;SDS011;12243;42.708;23.310;2023-11-21T05:53:37;27.37;;;16.43;;
16450;SDS011;12243;42.708;23.310;2023-11-21T05:56:15;24.80;;;14.90;;
16450;SDS011;12243;42.708;23.310;2023-11-21T05:58:43;27.70;;;15.07;;
16450;SDS011;12243;42.708;23.310;2023-11-21T06:01:10;33.07;;;17.17;;
16450;SDS011;12243;42.708;23.310;2023-11-21T06:03:38;31.20;;;16.00;;
16450;SDS011;12243;42.708;23.310;2023-11-21T06:06:07;26.73;;;13.57;;
16450;SDS011;12243;42.708;23.310;2023-11-21T06:08:34;34.07;;;18.73;;
16450;SDS011;12243;42.708;23.310;2023-11-21T06:11:01;30.90;;;19.00;;
16450;SDS011;12243;42.708;23.310;2023-11-21T06:13:28;30.70;;;19.57;;
16450;SDS011;12243;42.708;23.310;2023-11-21T06:15:55;40.33;;;21.10;;
16450;SDS011;12243;42.708;23.310;2023-11-21T06:18:22;35.17;;;20.07;;
16450;SDS011;12243;42.708;23.310;2023-11-21T06:20:49;32.90;;;19.60;;
16450;SDS011;12243;42.708;23.310;2023-11-21T06:23:19;32.07;;;19.07;;
16450;SDS011;12243;42.708;23.310;2023-11-21T06:25:46;37.87;;;20.03;;
16450;SDS011;12243;42.708;23.310;2023-11-21T06:28:13;33.10;;;20.30;;
16450;SDS011;12243;42.708;23.310;2023-11-21T06:30:42;34.83;;;20.50;;
16450;SDS011;12243;42.708;23.310;2023-11-21T06:33:10;40.40;;;21.10;;
16450;SDS011;12243;42.708;23.310;2023-11-21T06:35:39;44.63;;;23.87;;
16450;SDS011;12243;42.708;23.310;2023-11-21T06:38:06;30.13;;;18.13;;
16450;SDS011;12243;42.708;23.310;2023-11-21T06:40:35;31.23;;;17.80;;
16450;SDS011;12243;42.708;23.310;2023-11-21T06:43:03;30.53;;;17.77;;
16450;SDS011;12243;42.708;23.310;2023-11-21T06:45:32;27.50;;;16.57;;
16450;SDS011;12243;42.708;23.310;2023-11-21T06:47:59;31.90;;;17.80;;
16450;SDS011;12243;42.708;23.310;2023-11-21T06:50:26;28.23;;;18.30;;
16450;SDS011;12243;42.708;23.310;2023-11-21T06:52:53;30.57;;;17.87;;
16450;SDS011;12243;42.708;23.310;2023-11-21T06:55:20;44.93;;;23.00;;
16450;SDS011;12243;42.708;23.310;2023-11-21T06:57:48;28.13;;;17.80;;
16450;SDS011;12243;42.708;23.310;2023-11-21T07:00:17;30.27;;;17.93;;
16450;SDS011;12243;42.708;23.310;2023-11-21T07:02:44;35.97;;;20.23;;
16450;SDS011;12243;42.708;23.310;2023-11-21T07:05:11;30.50;;;18.80;;
16450;SDS011;12243;42.708;23.310;2023-11-21T07:07:39;29.97;;;17.80;;
16450;SDS011;12243;42.708;23.310;2023-11-21T07:10:06;32.03;;;20.63;;
16450;SDS011;12243;42.708;23.310;2023-11-21T07:12:34;38.27;;;19.13;;
16450;SDS011;12243;42.708;23.310;2023-11-21T07:15:03;32.63;;;19.23;;
16450;SDS011;12243;42.708;23.310;2023-11-21T07:17:34;39.40;;;20.43;;
16450;SDS011;12243;42.708;23.310;2023-11-21T07:20:02;30.80;;;20.33;;
16450;SDS011;12243;42.708;23.310;2023-11-21T07:22:31;34.60;;;19.43;;
16450;SDS011;12243;42.708;23.310;2023-11-21T07:24:58;40.47;;;19.57;;
16450;SDS011;12243;42.708;23.310;2023-11-21T07:27:25;28.80;;;17.80;;
16450;SDS011;12243;42.708;23.310;2023-11-21T07:29:52;34.50;;;18.43;;
16450;SDS011;12243;42.708;23.310;2023-11-21T07:32:20;34.93;;;20.27;;
16450;SDS011;12243;42.708;23.310;2023-11-21T07:34:47;37.33;;;20.80;;
16450;SDS011;12243;42.708;23.310;2023-11-21T07:37:14;37.90;;;19.87;;
16450;SDS011;12243;42.708;23.310;2023-11-21T07:39:41;35.07;;;20.23;;
16450;SDS011;12243;42.708;23.310;2023-11-21T07:42:09;34.93;;;21.23;;
16450;SDS011;12243;42.708;23.310;2023-11-21T07:44:36;33.40;;;19.73;;
16450;SDS011;12243;42.708;23.310;2023-11-21T07:47:03;39.30;;;20.97;;
16450;SDS011;12243;42.708;23.310;2023-11-21T07:49:32;38.37;;;21.40;;
16450;SDS011;12243;42.708;23.310;2023-11-21T07:51:59;36.57;;;21.93;;
16450;SDS011;12243;42.708;23.310;2023-11-21T07:54:26;38.53;;;23.13;;
16450;SDS011;12243;42.708;23.310;2023-11-21T07:56:53;40.43;;;24.53;;
16450;SDS011;12243;42.708;23.310;2023-11-21T07:59:20;37.40;;;23.47;;
16450;SDS011;12243;42.708;23.310;2023-11-21T08:01:47;42.53;;;24.03;;
16450;SDS011;12243;42.708;23.310;2023-11-21T08:04:14;39.37;;;24.03;;
16450;SDS011;12243;42.708;23.310;2023-11-21T08:06:42;40.10;;;23.07;;
16450;SDS011;12243;42.708;23.310;2023-11-21T08:09:09;35.33;;;25.57;;
16450;SDS011;12243;42.708;23.310;2023-11-21T08:11:37;38.00;;;23.47;;
16450;SDS011;12243;42.708;23.310;2023-11-21T08:14:04;38.53;;;23.80;;
16450;SDS011;12243;42.708;23.310;2023-11-21T08:16:31;35.90;;;22.80;;
16450;SDS011;12243;42.708;23.310;2023-11-21T08:18:58;37.50;;;23.67;;
16450;SDS011;12243;42.708;23.310;2023-11-21T08:21:25;34.90;;;23.17;;
16450;SDS011;12243;42.708;23.310;2023-11-21T08:23:53;37.73;;;22.77;;
16450;SDS011;12243;42.708;23.310;2023-11-21T08:26:21;35.87;;;22.13;;
16450;SDS011;12243;42.708;23.310;2023-11-21T08:28:48;38.70;;;22.50;;
16450;SDS011;12243;42.708;23.310;2023-11-21T08:31:23;32.20;;;22.43;;
16450;SDS011;12243;42.708;23.310;2023-11-21T08:33:50;36.20;;;21.90;;
16450;SDS011;12243;42.708;23.310;2023-11-21T08:36:18;37.70;;;23.97;;
16450;SDS011;12243;42.708;23.310;2023-11-21T08:38:46;36.63;;;21.63;;
16450;SDS011;12243;42.708;23.310;2023-11-21T08:41:15;34.83;;;22.30;;
16450;SDS011;12243;42.708;23.310;2023-11-21T08:43:42;35.93;;;22.60;;
16450;SDS011;12243;42.708;23.310;2023-11-21T08:46:10;37.13;;;23.87;;
16450;SDS011;12243;42.708;23.310;2023-11-21T08:48:37;36.87;;;23.97;;
16450;SDS011;12243;42.708;23.310;2023-11-21T08:51:04;42.67;;;24.30;;
16450;SDS011;12243;42.708;23.310;2023-11-21T08:53:31;36.43;;;23.23;;
16450;SDS011;12243;42.708;23.310;2023-11-21T08:55:58;41.67;;;23.13;;
16450;SDS011;12243;42.708;23.310;2023-11-21T08:58:27;37.00;;;22.97;;
16450;SDS011;12243;42.708;23.310;2023-11-21T09:00:54;39.77;;;21.73;;
16450;SDS011;12243;42.708;23.310;2023-11-21T09:03:21;38.70;;;20.80;;
16450;SDS011;12243;42.708;23.310;2023-11-21T09:05:47;35.37;;;19.47;;
16450;SDS011;12243;42.708;23.310;2023-11-21T09:08:14;36.80;;;20.40;;
16450;SDS011;12243;42.708;23.310;2023-11-21T09:10:41;38.57;;;19.93;;
16450;SDS011;12243;42.708;23.310;2023-11-21T09:13:12;37.10;;;19.77;;
16450;SDS011;12243;42.708;23.310;2023-11-21T09:15:44;34.80;;;18.67;;
16450;SDS011;12243;42.708;23.310;2023-11-21T09:18:12;34.00;;;19.60;;
16450;SDS011;12243;42.708;23.310;2023-11-21T09:20:40;37.37;;;19.93;;
16450;SDS011;12243;42.708;23.310;2023-11-21T09:23:07;35.73;;;20.43;;
16450;SDS011;12243;42.708;23.310;2023-11-21T09:25:34;31.63;;;18.80;;
16450;SDS011;12243;42.708;23.310;2023-11-21T09:28:02;29.77;;;18.97;;
16450;SDS011;12243;42.708;23.310;2023-11-21T09:30:33;37.60;;;20.27;;
16450;SDS011;12243;42.708;23.310;2023-11-21T09:33:01;37.90;;;20.33;;
16450;SDS011;12243;42.708;23.310;2023-11-21T09:35:30;27.50;;;18.37;;
16450;SDS011;12243;42.708;23.310;2023-11-21T09:37:57;32.63;;;19.83;;
16450;SDS011;12243;42.708;23.310;2023-11-21T09:40:26;41.17;;;23.77;;
16450;SDS011;12243;42.708;23.310;2023-11-21T09:42:54;41.10;;;21.53;;
16450;SDS011;12243;42.708;23.310;2023-11-21T09:45:24;31.57;;;19.87;;
16450;SDS011;12243;42.708;23.310;2023-11-21T09:47:52;27.10;;;17.40;;
16450;SDS011;12243;42.708;23.310;2023-11-21T09:50:24;35.20;;;20.83;;
16450;SDS011;12243;42.708;23.310;2023-11-21T09:52:57;32.03;;;20.23;;
16450;SDS011;12243;42.708;23.310;2023-11-21T09:55:36;35.40;;;21.20;;
16450;SDS011;12243;42.708;23.310;2023-11-21T09:58:05;43.77;;;23.70;;
16450;SDS011;12243;42.708;23.310;2023-11-21T10:00:33;30.87;;;18.80;;
16450;SDS011;12243;42.708;23.310;2023-11-21T10:03:00;32.30;;;19.67;;
16450;SDS011;12243;42.708;23.310;2023-11-21T10:05:29;34.80;;;21.00;;
16450;SDS011;12243;42.708;23.310;2023-11-21T10:07:59;35.67;;;22.13;;
16450;SDS011;12243;42.708;23.310;2023-11-21T10:10:27;37.13;;;20.80;;
16450;SDS011;12243;42.708;23.310;2023-11-21T10:12:57;36.60;;;21.17;;
16450;SDS011;12243;42.708;23.310;2023-11-21T10:15:29;43.43;;;24.07;;
16450;SDS011;12243;42.708;23.310;2023-11-21T10:18:00;37.70;;;24.20;;
16450;SDS011;12243;42.708;23.310;2023-11-21T10:20:30;31.30;;;22.87;;
16450;SDS011;12243;42.708;23.310;2023-11-21T10:22:59;34.13;;;23.27;;
16450;SDS011;12243;42.708;23.310;2023-11-21T10:25:27;36.27;;;22.30;;
16450;SDS011;12243;42.708;23.310;2023-11-21T10:27:57;37.47;;;22.07;;
16450;SDS011;12243;42.708;23.310;2023-11-21T10:30:27;37.47;;;21.87;;
16450;SDS011;12243;42.708;23.310;2023-11-21T10:32:58;34.47;;;19.53;;
16450;SDS011;12243;42.708;23.310;2023-11-21T10:35:39;33.00;;;19.53;;
16450;SDS011;12243;42.708;23.310;2023-11-21T10:38:12;27.83;;;19.60;;
16450;SDS011;12243;42.708;23.310;2023-11-21T10:40:39;34.13;;;18.67;;
16450;SDS011;12243;42.708;23.310;2023-11-21T10:43:08;29.97;;;17.93;;
16450;SDS011;12243;42.708;23.310;2023-11-21T10:45:36;27.57;;;17.67;;
16450;SDS011;12243;42.708;23.310;2023-11-21T10:48:05;27.57;;;18.03;;
16450;SDS011;12243;42.708;23.310;2023-11-21T10:50:34;25.53;;;16.87;;
16450;SDS011;12243;42.708;23.310;2023-11-21T10:53:03;22.03;;;14.50;;
16450;SDS011;12243;42.708;23.310;2023-11-21T10:55:31;19.67;;;13.10;;
16450;SDS011;12243;42.708;23.310;2023-11-21T10:57:59;25.77;;;14.57;;
16450;SDS011;12243;42.708;23.310;2023-11-21T11:00:29;25.83;;;16.40;;
16450;SDS011;12243;42.708;23.310;2023-11-21T11:02:56;25.63;;;15.20;;
16450;SDS011;12243;42.708;23.310;2023-11-21T11:05:24;22.83;;;14.53;;
16450;SDS011;12243;42.708;23.310;2023-11-21T11:07:58;27.23;;;17.43;;
16450;SDS011;12243;42.708;23.310;2023-11-21T11:10:28;63.53;;;28.90;;
16450;SDS011;12243;42.708;23.310;2023-11-21T11:12:55;40.33;;;21.53;;
16450;SDS011;12243;42.708;23.310;2023-11-21T11:15:23;26.73;;;16.60;;
16450;SDS011;12243;42.708;23.310;2023-11-21T11:17:51;29.60;;;16.10;;
16450;SDS011;12243;42.708;23.310;2023-11-21T11:20:22;27.33;;;16.03;;
16450;SDS011;12243;42.708;23.310;2023-11-21T11:22:52;28.97;;;16.33;;
16450;SDS011;12243;42.708;23.310;2023-11-21T11:25:38;28.87;;;16.03;;
16450;SDS011;12243;42.708;23.310;2023-11-21T11:28:19;25.20;;;15.63;;
16450;SDS011;12243;42.708;23.310;2023-11-21T11:30:53;30.30;;;17.50;;
16450;SDS011;12243;42.708;23.310;2023-11-21T11:33:33;24.43;;;14.47;;
16450;SDS011;12243;42.708;23.310;2023-11-21T11:36:06;20.30;;;13.77;;
16450;SDS011;12243;42.708;23.310;2023-11-21T11:38:44;22.80;;;13.40;;
16450;SDS011;12243;42.708;23.310;2023-11-21T11:41:23;22.13;;;12.63;;
16450;SDS011;12243;42.708;23.310;2023-11-21T11:43:52;19.53;;;13.63;;
16450;SDS011;12243;42.708;23.310;2023-11-21T11:46:19;24.67;;;13.23;;
16450;SDS011;12243;42.708;23.310;2023-11-21T11:48:48;19.47;;;13.13;;
16450;SDS011;12243;42.708;23.310;2023-11-21T11:51:15;28.10;;;14.03;;
16450;SDS011;12243;42.708;23.310;2023-11-21T11:53:45;23.57;;;14.43;;
16450;SDS011;12243;42.708;23.310;2023-11-21T11:56:22;24.20;;;15.97;;
16450;SDS011;12243;42.708;23.310;2023-11-21T11:58:51;27.67;;;16.13;;
16450;SDS011;12243;42.708;23.310;2023-11-21T12:01:18;25.40;;;15.47;;
16450;SDS011;12243;42.708;23.310;2023-11-21T12:06:47;25.17;;;15.27;;
16450;SDS011;12243;42.708;23.310;2023-11-21T12:09:17;29.40;;;16.80;;
16450;SDS011;12243;42.708;23.310;2023-11-21T12:11:46;30.87;;;19.10;;
16450;SDS011;12243;42.708;23.310;2023-11-21T12:14:13;27.50;;;19.67;;
16450;SDS011;12243;42.708;23.310;2023-11-21T12:16:40;35.73;;;20.30;;
16450;SDS011;12243;42.708;23.310;2023-11-21T12:19:09;32.63;;;20.47;;
16450;SDS011;12243;42.708;23.310;2023-11-21T12:21:36;28.33;;;17.40;;
16450;SDS011;12243;42.708;23.310;2023-11-21T12:24:04;26.97;;;17.50;;
16450;SDS011;12243;42.708;23.310;2023-11-21T12:26:34;30.63;;;17.57;;
16450;SDS011;12243;42.708;23.310;2023-11-21T12:29:02;32.57;;;18.77;;
16450;SDS011;12243;42.708;23.310;2023-11-21T12:31:32;27.47;;;17.53;;
16450;SDS011;12243;42.708;23.310;2023-11-21T12:33:59;35.97;;;18.97;;
16450;SDS011;12243;42.708;23.310;2023-11-21T12:36:26;28.87;;;16.67;;
16450;SDS011;12243;42.708;23.310;2023-11-21T12:38:54;23.67;;;15.07;;
16450;SDS011;12243;42.708;23.310;2023-11-21T12:41:21;22.30;;;15.90;;
16450;SDS011;12243;42.708;23.310;2023-11-21T12:43:49;23.13;;;15.03;;
16450;SDS011;12243;42.708;23.310;2023-11-21T12:46:17;26.23;;;16.20;;
16450;SDS011;12243;42.708;23.310;2023-11-21T12:48:45;22.47;;;15.30;;
16450;SDS011;12243;42.708;23.310;2023-11-21T12:51:13;25.50;;;16.23;;
16450;SDS011;12243;42.708;23.310;2023-11-21T12:53:41;23.40;;;14.83;;
16450;SDS011;12243;42.708;23.310;2023-11-21T12:56:09;20.73;;;13.47;;
16450;SDS011;12243;42.708;23.310;2023-11-21T12:58:43;18.77;;;13.40;;
16450;SDS011;12243;42.708;23.310;2023-11-21T13:01:12;19.00;;;12.70;;
16450;SDS011;12243;42.708;23.310;2023-11-21T13:03:47;21.60;;;12.70;;
16450;SDS011;12243;42.708;23.310;2023-11-21T13:06:17;23.50;;;16.77;;
16450;SDS011;12243;42.708;23.310;2023-11-21T13:08:45;22.73;;;14.57;;
16450;SDS011;12243;42.708;23.310;2023-11-21T13:11:13;18.30;;;13.57;;
16450;SDS011;12243;42.708;23.310;2023-11-21T13:13:41;21.27;;;13.93;;
16450;SDS011;12243;42.708;23.310;2023-11-21T13:16:09;20.60;;;14.07;;
16450;SDS011;12243;42.708;23.310;2023-11-21T13:18:36;22.00;;;14.83;;
16450;SDS011;12243;42.708;23.310;2023-11-21T13:21:07;17.67;;;13.40;;
16450;SDS011;12243;42.708;23.310;2023-11-21T13:23:38;17.43;;;13.03;;
16450;SDS011;12243;42.708;23.310;2023-11-21T13:26:06;23.93;;;14.93;;
16450;SDS011;12243;42.708;23.310;2023-11-21T13:28:37;19.57;;;14.13;;
16450;SDS011;12243;42.708;23.310;2023-11-21T13:31:06;21.07;;;14.10;;
16450;SDS011;12243;42.708;23.310;2023-11-21T13:33:46;25.27;;;14.37;;
16450;SDS011;12243;42.708;23.310;2023-11-21T13:36:21;24.67;;;15.33;;
16450;SDS011;12243;42.708;23.310;2023-11-21T13:38:49;22.73;;;14.77;;
16450;SDS011;12243;42.708;23.310;2023-11-21T13:41:17;19.53;;;14.30;;
16450;SDS011;12243;42.708;23.310;2023-11-21T13:43:45;22.83;;;15.03;;
16450;SDS011;12243;42.708;23.310;2023-11-21T13:46:17;23.93;;;15.67;;
16450;SDS011;12243;42.708;23.310;2023-11-21T13:48:47;23.23;;;14.93;;
16450;SDS011;12243;42.708;23.310;2023-11-21T13:51:16;21.77;;;14.37;;
16450;SDS011;12243;42.708;23.310;2023-11-21T13:53:44;24.97;;;15.90;;
16450;SDS011;12243;42.708;23.310;2023-11-21T13:56:15;27.20;;;16.20;;
16450;SDS011;12243;42.708;23.310;2023-11-21T13:58:46;26.80;;;17.37;;
16450;SDS011;12243;42.708;23.310;2023-11-21T14:01:16;27.97;;;17.73;;
16450;SDS011;12243;42.708;23.310;2023-11-21T14:04:06;23.60;;;17.40;;
16450;SDS011;12243;42.708;23.310;2023-11-21T14:06:44;32.87;;;19.60;;
16450;SDS011;12243;42.708;23.310;2023-11-21T14:09:15;31.37;;;18.90;;
16450;SDS011;12243;42.708;23.310;2023-11-21T14:11:50;29.57;;;18.50;;
16450;SDS011;12243;42.708;23.310;2023-11-21T14:14:19;34.13;;;22.30;;
16450;SDS011;12243;42.708;23.310;2023-11-21T14:16:46;30.93;;;23.03;;
16450;SDS011;12243;42.708;23.310;2023-11-21T14:19:13;32.90;;;22.03;;